Time;durP1;ratioP1;P1;durP2;ratioP2;P2;SDS_P1;SDS_P2;PMS_P1;PMS_P2;Temp;Humidity;BMP_temperature;BMP_pressure;BME280_temperature;BME280_humidity;BME280_pressure;Samples;Min_cycle;Max_cycle;Signal;HPM_P1;HPM_P2
2022/07/06 00:00:42;;;;;;;7.97;1.30;;;13.80;99.90;;;12.79;93.28;101610.91;4981595;28;20053;-71
2022/07/06 00:03:08;;;;;;;7.45;1.48;;;13.80;99.90;;;12.77;93.90;101615.38;4985117;28;20033;-71
2022/07/06 00:05:34;;;;;;;5.35;1.10;;;13.70;99.90;;;12.74;93.93;101618.13;4983961;28;20038;-69
2022/07/06 00:08:00;;;;;;;7.47;1.52;;;13.70;99.90;;;12.69;94.21;101622.78;4983682;28;20037;-70
2022/07/06 00:10:25;;;;;;;;;;;13.70;99.90;;;12.58;93.77;101625.84;4985814;28;20026;-71
2022/07/06 00:12:51;;;;;;;8.73;1.40;;;13.60;99.90;;;12.50;93.90;101623.53;4982729;28;19998;-70
2022/07/06 00:15:17;;;;;;;11.10;1.60;;;13.50;99.90;;;12.47;94.04;101621.00;4989036;28;20041;-70
2022/07/06 00:17:43;;;;;;;;;;;13.50;99.90;;;12.39;94.78;101620.44;4983328;28;20169;-70
2022/07/06 00:20:09;;;;;;;4.50;1.00;;;13.40;99.90;;;12.29;94.73;101609.41;4982236;28;19920;-70
2022/07/06 00:22:35;;;;;;;11.75;1.35;;;13.30;99.90;;;12.25;94.28;101617.50;4971782;28;20593;-70
2022/07/06 00:25:01;;;;;;;11.63;1.65;;;13.30;99.90;;;12.23;95.00;101614.91;4982120;28;20766;-71
2022/07/06 00:27:27;;;;;;;6.40;1.40;;;13.30;99.90;;;12.21;95.81;101614.13;4981015;28;20022;-69
2022/07/06 00:29:52;;;;;;;8.60;1.10;;;13.20;99.90;;;12.15;95.64;101617.00;4983559;28;20034;-70
2022/07/06 00:32:18;;;;;;;;;;;13.20;99.90;;;12.05;95.53;101611.22;4982450;28;20030;-70
2022/07/06 00:34:44;;;;;;;6.28;1.20;;;13.10;99.90;;;12.00;95.72;101615.81;4982822;28;20380;-69
2022/07/06 00:37:10;;;;;;;5.95;0.95;;;13.00;99.90;;;12.00;95.96;101614.94;4985749;28;20022;-69
2022/07/06 00:39:35;;;;;;;4.35;1.15;;;13.00;99.90;;;11.99;96.50;101615.88;4993887;28;20096;-69
2022/07/06 00:42:01;;;;;;;13.50;1.40;;;13.00;99.90;;;11.97;95.95;101617.72;4982654;28;20037;-70
2022/07/06 00:44:28;;;;;;;11.15;1.65;;;13.00;99.90;;;11.94;96.52;101616.03;4974337;28;20042;-70
2022/07/06 00:46:54;;;;;;;4.63;1.23;;;12.90;99.90;;;11.90;96.56;101617.09;4982749;28;20030;-70
2022/07/06 00:52:04;;;;;;;6.05;1.00;;;12.90;99.90;;;11.81;96.73;101609.47;4982477;28;20068;-70
2022/07/06 00:54:32;;;;;;;7.22;1.30;;;12.80;99.90;;;11.78;96.32;101609.59;4968150;28;20054;-69
2022/07/06 00:56:58;;;;;;;5.70;1.30;;;12.80;99.90;;;11.73;96.29;101606.25;4982675;28;20487;-70
2022/07/06 00:59:24;;;;;;;9.18;1.67;;;12.70;99.90;;;11.68;96.44;101604.69;4981738;28;20122;-69
2022/07/06 01:01:51;;;;;;;8.30;1.75;;;12.70;99.90;;;11.64;97.38;101604.81;4983372;28;20114;-71
2022/07/06 01:04:16;;;;;;;7.25;1.52;;;12.60;99.90;;;11.59;97.12;101607.63;4980740;28;20045;-70
2022/07/06 01:06:48;;;;;;;9.65;2.00;;;12.60;99.90;;;11.54;97.68;101614.00;4974762;28;20076;-69
2022/07/06 01:09:13;;;;;;;12.07;2.28;;;12.50;99.90;;;11.47;98.55;101608.94;4980898;28;20022;-70
2022/07/06 01:11:39;;;;;;;6.13;1.48;;;12.50;99.90;;;11.41;98.71;101609.16;4982458;28;20065;-70
2022/07/06 01:14:06;;;;;;;7.88;1.73;;;12.40;99.90;;;11.36;98.19;101612.88;4981888;28;20379;-70
2022/07/06 01:16:32;;;;;;;8.77;1.98;;;12.40;99.90;;;11.32;98.89;101616.53;4984843;28;20034;-69
2022/07/06 01:18:58;;;;;;;9.25;1.63;;;12.40;99.90;;;11.29;99.04;101599.94;4981325;28;20026;-70
2022/07/06 01:21:24;;;;;;;;;;;12.30;99.90;;;11.23;99.51;101605.41;4980647;28;20095;-69
2022/07/06 01:23:50;;;;;;;8.30;2.17;;;12.30;99.90;;;11.20;100.00;101604.66;4979689;28;19918;-70
2022/07/06 01:26:20;;;;;;;10.85;1.65;;;12.30;99.90;;;11.19;100.00;101602.94;4962280;28;20060;-69
2022/07/06 01:28:51;;;;;;;8.48;1.67;;;12.20;99.90;;;11.19;100.00;101597.69;4989243;28;20061;-70
2022/07/06 01:31:24;;;;;;;13.43;2.00;;;12.20;99.90;;;11.20;100.00;101599.38;4982840;28;20034;-70
2022/07/06 01:33:53;;;;;;;13.93;1.95;;;12.20;99.90;;;11.18;100.00;101594.16;4972086;28;20197;-70
2022/07/06 01:36:20;;;;;;;9.43;2.08;;;12.20;99.90;;;11.18;100.00;101595.94;4982427;28;20398;-70
2022/07/06 01:38:59;;;;;;;9.50;2.13;;;12.20;99.90;;;11.18;100.00;101591.53;4985821;28;20030;-69
2022/07/06 01:41:25;;;;;;;12.00;1.80;;;12.20;99.90;;;11.17;100.00;101587.19;4982730;28;20486;-70
2022/07/06 01:43:51;;;;;;;6.22;2.00;;;12.20;99.90;;;11.17;100.00;101588.97;4980369;28;20026;-70
2022/07/06 01:46:18;;;;;;;9.90;1.55;;;12.20;99.90;;;11.16;100.00;101584.59;4982081;28;20122;-70
2022/07/06 01:48:44;;;;;;;8.68;1.70;;;12.20;99.90;;;11.12;100.00;101575.91;4980220;28;20065;-69
2022/07/06 01:51:11;;;;;;;6.93;1.50;;;12.20;99.90;;;11.11;100.00;101576.84;4983765;28;20034;-70
2022/07/06 01:53:38;;;;;;;7.72;1.60;;;12.10;99.90;;;11.09;100.00;101582.16;4981669;28;20038;-70
2022/07/06 01:56:04;;;;;;;8.75;1.42;;;12.10;99.90;;;11.06;100.00;101577.00;4983690;28;20084;-70
2022/07/06 01:58:30;;;;;;;5.93;1.60;;;12.10;99.90;;;11.05;100.00;101579.69;4978338;28;20036;-69
2022/07/06 02:00:55;;;;;;;9.20;2.00;;;12.10;99.90;;;11.01;100.00;101573.66;4970803;28;20057;-69
2022/07/06 02:03:21;;;;;;;;;;;12.10;99.90;;;10.97;100.00;101576.47;4985312;28;20018;-70
2022/07/06 02:05:47;;;;;;;10.65;1.80;;;12.00;99.90;;;10.93;100.00;101575.72;4982292;28;20404;-69
2022/07/06 02:08:13;;;;;;;7.03;1.77;;;12.00;99.90;;;10.93;100.00;101580.13;4973251;28;20092;-69
2022/07/06 02:10:40;;;;;;;10.18;1.77;;;12.00;99.90;;;10.91;100.00;101581.94;4965881;28;20102;-70
2022/07/06 02:13:05;;;;;;;11.20;1.75;;;12.00;99.90;;;10.90;100.00;101582.88;4963885;28;20459;-70
2022/07/06 02:15:31;;;;;;;6.30;1.63;;;12.00;99.90;;;10.89;100.00;101584.66;4982629;28;20026;-71
2022/07/06 02:17:57;;;;;;;;;;;11.90;99.90;;;10.85;100.00;101588.28;4979228;28;20125;-69
2022/07/06 02:20:23;;;;;;;10.50;1.73;;;11.90;99.90;;;10.82;100.00;101597.16;4981369;28;19905;-69
2022/07/06 02:22:48;;;;;;;10.45;2.08;;;11.90;99.90;;;10.82;100.00;101593.66;4979096;28;20034;-69
2022/07/06 02:25:14;;;;;;;5.50;1.90;;;11.90;99.90;;;10.82;100.00;101593.66;4982824;28;20042;-69
2022/07/06 02:27:40;;;;;;;;;;;11.90;99.90;;;10.78;100.00;101603.44;4975918;28;20038;-70
2022/07/06 02:30:06;;;;;;;8.18;1.98;;;11.80;99.90;;;10.76;100.00;101591.25;4981534;28;19914;-71
2022/07/06 02:32:32;;;;;;;5.97;1.80;;;11.80;99.90;;;10.76;100.00;101602.63;4982471;28;20027;-69
2022/07/06 02:34:58;;;;;;;9.27;2.08;;;11.80;99.90;;;10.79;100.00;101606.94;4981131;28;20049;-70
2022/07/06 02:37:24;;;;;;;7.63;2.40;;;11.80;99.90;;;10.80;100.00;101606.91;4980146;28;20084;-70
2022/07/06 02:39:50;;;;;;;9.45;2.30;;;11.80;99.90;;;10.83;100.00;101601.50;4982083;28;20030;-70
2022/07/06 02:42:16;;;;;;;9.93;1.90;;;11.90;99.90;;;10.88;100.00;101599.59;4982136;28;20023;-70
2022/07/06 02:44:42;;;;;;;9.57;2.35;;;11.90;99.90;;;10.94;100.00;101592.38;4979659;28;20502;-69
2022/07/06 02:47:07;;;;;;;9.35;2.33;;;12.00;99.90;;;11.02;100.00;101603.53;4982420;28;20164;-69
2022/07/06 02:49:33;;;;;;;8.32;1.92;;;12.00;99.90;;;11.08;100.00;101605.97;4976080;28;20041;-69
2022/07/06 02:51:59;;;;;;;;;;;12.10;99.90;;;11.14;100.00;101600.44;4983471;28;20029;-70
2022/07/06 02:54:25;;;;;;;7.88;2.08;;;12.20;99.90;;;11.19;100.00;101602.94;4982343;28;19932;-70
2022/07/06 02:56:53;;;;;;;;;;;12.20;99.90;;;11.26;100.00;101602.66;4981751;28;20058;-70
2022/07/06 02:59:20;;;;;;;8.20;2.35;;;12.30;99.90;;;11.31;100.00;101607.78;4986843;28;19917;-69
2022/07/06 03:01:46;;;;;;;9.30;2.55;;;12.30;99.90;;;11.41;100.00;101608.31;4982781;28;21421;-69
2022/07/06 03:04:11;;;;;;;13.35;2.53;;;12.40;99.90;;;11.50;100.00;101605.34;4986917;28;20041;-70
2022/07/06 03:06:37;;;;;;;;;;;12.40;99.90;;;11.55;100.00;101597.25;4987271;28;20037;-69
2022/07/06 03:09:03;;;;;;;10.57;2.17;;;12.50;99.90;;;11.59;100.00;101607.63;4981287;28;20403;-69
2022/07/06 03:11:29;;;;;;;;;;;12.50;99.90;;;11.64;100.00;101604.81;5001295;28;20514;-71
2022/07/06 03:13:54;;;;;;;7.75;1.83;;;12.60;99.90;;;11.70;100.00;101604.59;4988047;28;19929;-69
2022/07/06 03:16:20;;;;;;;9.07;1.92;;;12.70;99.90;;;11.81;100.00;101606.84;4984145;28;20117;-70
2022/07/06 03:18:46;;;;;;;;;;;12.70;99.90;;;11.89;100.00;101608.28;4991468;28;20033;-69
2022/07/06 03:21:11;;;;;;;12.30;2.10;;;12.80;99.90;;;11.99;100.00;101610.59;4983137;28;19921;-71
2022/07/06 03:23:37;;;;;;;9.13;2.17;;;12.90;99.90;;;12.13;100.00;101613.56;4982881;28;20129;-70
2022/07/06 03:26:03;;;;;;;;;;;12.90;99.90;;;12.23;100.00;101614.06;4976862;28;20118;-70
2022/07/06 03:28:28;;;;;;;5.85;2.05;;;13.10;99.90;;;12.35;100.00;101610.91;4986800;28;20397;-70
2022/07/06 03:30:55;;;;;;;13.85;2.13;;;13.20;99.90;;;12.48;100.00;101609.53;4985177;28;20113;-70
2022/07/06 03:33:20;;;;;;;7.55;2.00;;;13.30;99.90;;;12.60;100.00;101613.44;4981259;28;20038;-70
2022/07/06 03:35:46;;;;;;;12.52;2.03;;;13.50;99.90;;;12.71;100.00;101616.50;4983206;28;20062;-70
2022/07/06 03:38:12;;;;;;;12.25;2.10;;;13.50;99.90;;;12.84;100.00;101605.41;4986227;28;20068;-69
2022/07/06 03:40:38;;;;;;;8.23;1.55;;;13.70;99.90;;;12.99;100.00;101607.41;4992469;28;20038;-69
2022/07/06 03:43:03;;;;;;;9.32;2.05;;;13.90;99.90;;;13.26;100.00;101620.34;4983889;28;20030;-70
2022/07/06 03:45:30;;;;;;;9.70;1.70;;;14.80;99.90;;;14.21;100.00;101620.50;4983049;28;20046;-72
2022/07/06 03:47:56;;;;;;;12.48;1.85;;;15.30;99.90;;;14.70;95.95;101626.09;4988282;28;20113;-70
2022/07/06 03:50:22;;;;;;;10.25;1.70;;;15.50;99.90;;;14.84;92.42;101634.22;4983265;28;20546;-70
2022/07/06 03:52:47;;;;;;;;;;;15.50;99.90;;;15.93;89.64;101630.34;4994582;28;20434;-70
2022/07/06 03:55:13;;;;;;;10.77;1.73;;;16.80;99.90;;;16.40;84.68;101638.34;4986510;28;19917;-69
2022/07/06 03:57:40;;;;;;;;;;;17.00;99.90;;;17.76;80.55;101639.19;4984657;28;20038;-70
2022/07/06 04:00:08;;;;;;;10.55;1.40;;;18.50;99.90;;;18.21;75.13;101641.72;4982218;28;19914;-70
2022/07/06 04:02:34;;;;;;;8.35;1.85;;;18.70;99.90;;;18.20;73.39;101651.53;4984528;28;20035;-70
2022/07/06 04:04:59;;;;;;;9.40;1.75;;;19.00;99.90;;;18.78;72.22;101651.38;4984895;28;20044;-71
2022/07/06 04:07:25;;;;;;;;;;;19.20;99.90;;;20.76;67.76;101655.31;4982768;28;20446;-70
2022/07/06 04:09:51;;;;;;;5.90;1.55;;;21.70;99.90;;;21.89;61.99;101659.94;4982440;28;20339;-71
2022/07/06 04:12:17;;;;;;;;;;;21.70;99.90;;;23.28;59.34;101660.16;4996979;28;20044;-70
2022/07/06 04:14:43;;;;;;;9.35;1.45;;;24.00;99.90;;;24.54;54.88;101665.22;4989868;28;22813;-70
2022/07/06 04:19:53;;;;;;;6.90;1.30;;;26.10;98.30;;;26.69;48.81;101678.94;4972080;28;20025;-69
2022/07/06 04:22:19;;;;;;;8.07;1.40;;;27.00;96.70;;;27.67;46.80;101686.13;4983358;28;20038;-70
2022/07/06 04:24:45;;;;;;;6.05;1.25;;;27.90;95.60;;;28.67;45.25;101694.50;4987746;28;20112;-70
2022/07/06 04:27:10;;;;;;;;;;;27.90;95.10;;;29.90;43.49;101698.00;4986334;28;20127;-71
2022/07/06 04:29:36;;;;;;;10.73;1.85;;;28.00;94.00;;;27.46;45.84;101684.66;4977115;28;19920;-71
2022/07/06 04:32:02;;;;;;;11.45;1.60;;;26.70;94.60;;;25.37;49.58;101676.41;4984577;28;20457;-70
2022/07/06 04:34:28;;;;;;;6.88;1.40;;;25.30;95.40;;;23.54;53.21;101676.72;4983317;28;20030;-70
2022/07/06 04:36:54;;;;;;;6.95;1.30;;;23.90;97.30;;;22.17;56.96;101672.97;4984225;28;20031;-69
2022/07/06 04:39:20;;;;;;;11.13;1.60;;;22.80;98.60;;;21.07;59.59;101680.59;4982561;28;20414;-69
2022/07/06 04:41:45;;;;;;;10.88;1.65;;;21.80;99.90;;;20.22;62.02;101672.59;4980566;28;20129;-69
2022/07/06 04:44:11;;;;;;;;;;;21.60;99.90;;;19.50;63.98;101672.31;4981711;28;22183;-71
2022/07/06 04:46:37;;;;;;;8.27;1.70;;;20.30;99.90;;;18.97;66.40;101675.03;4984910;28;19913;-71
2022/07/06 04:49:02;;;;;;;7.60;1.90;;;19.80;99.90;;;18.63;68.32;101677.22;4982908;28;20049;-70
2022/07/06 04:51:28;;;;;;;7.55;1.38;;;19.40;99.90;;;18.39;69.09;101674.34;4974151;28;20121;-71
2022/07/06 04:53:54;;;;;;;;;;;19.30;99.90;;;17.99;71.08;101680.41;4970779;28;20056;-70
2022/07/06 04:56:20;;;;;;;4.75;1.42;;;18.70;99.90;;;17.58;73.08;101674.91;4985096;28;19915;-70
2022/07/06 04:58:45;;;;;;;;;;;18.60;99.90;;;16.70;75.91;101679.22;4988597;28;20121;-71
2022/07/06 05:01:11;;;;;;;9.85;2.08;;;17.70;99.90;;;16.21;79.68;101669.53;4997572;28;19963;-71
2022/07/06 05:03:40;;;;;;;8.15;1.60;;;17.30;99.90;;;15.73;82.21;101665.97;4981034;28;20113;-71
2022/07/06 05:06:07;;;;;;;7.90;1.45;;;17.00;99.90;;;15.57;83.81;101657.91;4982264;28;20117;-71
2022/07/06 05:08:35;;;;;;;6.82;1.73;;;16.70;99.90;;;15.50;85.95;101664.47;4973616;28;20034;-71
2022/07/06 05:11:01;;;;;;;5.13;1.40;;;16.60;99.90;;;15.48;86.80;101656.59;4977307;28;20062;-71
2022/07/06 05:13:27;;;;;;;10.50;1.60;;;16.60;99.90;;;15.81;86.41;101661.09;4981178;28;20049;-71
2022/07/06 05:15:53;;;;;;;5.63;1.48;;;16.80;99.90;;;16.34;84.50;101667.06;4964954;28;20058;-71
2022/07/06 05:18:18;;;;;;;9.10;1.63;;;17.10;99.90;;;16.90;81.13;101662.13;4978441;28;20109;-72
2022/07/06 05:20:44;;;;;;;6.32;1.30;;;17.40;99.90;;;17.19;77.97;101671.06;4982673;28;20030;-70
2022/07/06 05:23:10;;;;;;;;;;;17.40;99.90;;;16.69;77.64;101667.72;4982399;28;20045;-71
2022/07/06 05:25:36;;;;;;;6.20;1.40;;;17.30;99.90;;;16.30;79.49;101670.81;4968746;28;20443;-72
2022/07/06 05:28:03;;;;;;;8.40;1.10;;;17.10;99.90;;;16.30;80.15;101669.03;4995766;28;20029;-70
2022/07/06 05:30:34;;;;;;;9.30;1.80;;;17.10;99.90;;;16.50;80.03;101672.34;4980583;28;21582;-72
2022/07/06 05:33:00;;;;;;;6.00;1.20;;;17.60;99.90;;;18.01;73.66;101661.63;4983834;28;20039;-71
2022/07/06 05:35:25;;;;;;;8.07;1.50;;;18.40;99.90;;;19.99;68.13;101671.56;4975332;28;20042;-71
2022/07/06 05:37:51;;;;;;;;;;;18.60;99.90;;;22.53;61.04;101686.09;4981335;28;20109;-72
2022/07/06 05:40:17;;;;;;;7.35;1.30;;;21.30;99.90;;;24.07;54.99;101680.25;4981587;28;19906;-71
2022/07/06 05:42:42;;;;;;;;;;;21.60;99.90;;;23.68;53.99;101677.34;4961998;28;20125;-71
2022/07/06 05:45:08;;;;;;;6.95;1.40;;;22.40;99.90;;;22.76;55.89;101677.09;4984690;28;19977;-72
2022/07/06 05:50:18;;;;;;;7.00;1.45;;;21.50;99.90;;;20.75;60.94;101659.78;4955144;28;20104;-71
2022/07/06 05:52:56;;;;;;;4.45;1.10;;;20.70;99.90;;;19.36;64.76;101665.28;4981659;28;20503;-71
2022/07/06 05:55:21;;;;;;;8.02;1.33;;;20.10;99.90;;;18.93;67.42;101666.38;4971530;28;20098;-71
2022/07/06 05:57:48;;;;;;;7.78;1.13;;;19.70;99.90;;;18.61;67.83;101669.31;4983265;28;20538;-71
2022/07/06 06:00:14;;;;;;;9.07;1.13;;;19.20;99.90;;;17.99;69.95;101652.88;4972232;28;20069;-70
2022/07/06 06:02:41;;;;;;;4.20;0.98;;;18.90;99.90;;;17.79;72.10;101665.63;4982220;28;20033;-71
2022/07/06 06:05:11;;;;;;;7.03;1.40;;;18.60;99.90;;;17.59;73.08;101666.00;4997170;28;20030;-70
2022/07/06 06:07:38;;;;;;;12.90;1.30;;;18.50;99.90;;;17.80;73.35;101664.69;4982020;28;20046;-71
2022/07/06 06:10:11;;;;;;;6.32;1.05;;;18.50;99.90;;;17.83;72.92;101661.84;4981608;28;20106;-71
2022/07/06 06:12:37;;;;;;;6.35;1.30;;;18.50;99.90;;;17.80;73.01;101667.34;4982857;28;22775;-70
2022/07/06 06:15:05;;;;;;;6.85;1.00;;;18.40;99.90;;;17.63;73.22;101662.19;4980347;28;20045;-71
2022/07/06 06:17:31;;;;;;;5.15;0.77;;;18.30;99.90;;;17.51;73.46;101658.47;4979023;28;20037;-71
2022/07/06 06:19:57;;;;;;;4.82;1.05;;;18.20;99.90;;;17.19;74.84;101655.97;4982618;28;20707;-71
2022/07/06 06:22:23;;;;;;;8.05;1.80;;;18.10;99.90;;;17.21;75.22;101663.84;4982900;28;20754;-71
2022/07/06 06:24:49;;;;;;;3.97;0.90;;;18.00;99.90;;;17.09;76.30;101656.59;4982253;28;20029;-72
2022/07/06 06:27:15;;;;;;;;;;;18.00;99.90;;;16.59;77.24;101666.53;4981303;28;20483;-72
2022/07/06 06:29:41;;;;;;;6.82;1.25;;;17.60;99.90;;;16.61;78.16;101665.50;4982104;28;19913;-71
2022/07/06 06:32:07;;;;;;;5.25;1.25;;;17.50;99.90;;;16.61;78.74;101665.50;4985383;28;20149;-72
2022/07/06 06:34:33;;;;;;;3.88;1.00;;;17.50;99.90;;;16.63;78.54;101668.09;4985554;28;20121;-71
2022/07/06 06:36:59;;;;;;;4.95;0.60;;;17.40;99.90;;;16.54;78.74;101684.53;4985327;28;20044;-72
2022/07/06 06:39:25;;;;;;;4.53;0.90;;;17.30;99.90;;;16.43;80.78;101679.81;4982861;28;20417;-71
2022/07/06 06:41:51;;;;;;;;;;;17.30;99.90;;;16.17;82.30;101671.50;4988358;28;20037;-72
2022/07/06 06:44:17;;;;;;;4.78;0.80;;;17.20;99.90;;;16.27;82.71;101666.53;4984626;28;19909;-71
2022/07/06 06:46:43;;;;;;;3.42;0.93;;;17.20;99.90;;;16.36;82.23;101676.66;4987620;28;20121;-71
2022/07/06 06:49:10;;;;;;;5.43;0.95;;;17.20;99.90;;;16.25;81.88;101671.09;4983758;28;20058;-71
2022/07/06 06:51:38;;;;;;;4.80;1.23;;;17.10;99.90;;;16.16;82.90;101669.78;4992140;28;20034;-72
2022/07/06 06:54:04;;;;;;;4.88;1.10;;;17.10;99.90;;;16.39;82.45;101665.88;4983078;28;20580;-71
2022/07/06 06:56:29;;;;;;;2.38;0.90;;;17.30;99.90;;;16.72;81.71;101666.69;4985735;28;20042;-71
2022/07/06 06:58:55;;;;;;;5.68;1.33;;;17.60;99.90;;;17.49;78.94;101671.00;4976487;28;20037;-70
2022/07/06 07:01:21;;;;;;;;;;;17.60;99.90;;;18.13;77.73;101670.69;4976628;28;20549;-72
2022/07/06 07:03:47;;;;;;;7.72;1.63;;;18.50;99.90;;;18.50;73.24;101674.50;4982320;28;20294;-71
2022/07/06 07:06:12;;;;;;;4.78;1.05;;;18.60;99.90;;;18.15;72.34;101668.78;4988419;28;20113;-71
2022/07/06 07:08:38;;;;;;;;;;;18.60;99.90;;;17.91;73.54;101668.53;4985418;28;20486;-72
2022/07/06 07:11:04;;;;;;;6.55;1.40;;;18.60;99.90;;;18.06;73.82;101667.56;4978694;28;21323;-71
2022/07/06 07:13:30;;;;;;;4.65;1.45;;;18.60;99.90;;;18.12;73.93;101671.63;4982169;28;20117;-71
2022/07/06 07:15:55;;;;;;;;;;;18.60;99.90;;;17.97;74.52;101662.78;4969330;28;20483;-71
2022/07/06 07:18:21;;;;;;;5.97;1.15;;;18.60;99.90;;;18.00;74.49;101667.94;4994275;28;19905;-72
2022/07/06 07:20:47;;;;;;;;;;;18.60;99.90;;;17.79;74.05;101676.28;4970915;28;20057;-71
2022/07/06 07:23:12;;;;;;;5.10;0.85;;;18.60;99.90;;;17.82;74.25;101684.13;4977407;28;19916;-72
2022/07/06 07:25:39;;;;;;;3.30;0.60;;;18.60;99.90;;;17.82;74.37;101676.13;4986101;28;20022;-72
2022/07/06 07:28:05;;;;;;;4.38;0.88;;;18.60;99.90;;;18.08;74.21;101670.97;4985023;28;20030;-71
2022/07/06 07:30:31;;;;;;;6.80;0.80;;;18.60;99.90;;;17.93;73.07;101683.44;4985555;28;20394;-72
2022/07/06 07:32:56;;;;;;;;;;;18.60;99.90;;;18.18;72.29;101680.06;4982002;28;20026;-72
2022/07/06 07:35:23;;;;;;;3.58;0.80;;;18.80;99.90;;;18.31;71.83;101676.63;4986589;28;19992;-71
2022/07/06 07:37:48;;;;;;;7.55;1.23;;;18.90;99.90;;;18.37;71.08;101689.56;4997486;28;20026;-72
2022/07/06 07:40:14;;;;;;;4.32;0.68;;;19.00;99.90;;;18.71;70.73;101693.59;4992888;28;20048;-71
2022/07/06 07:42:40;;;;;;;;;;;19.10;99.90;;;18.86;68.92;101678.41;4992435;28;20100;-71
2022/07/06 07:45:08;;;;;;;4.57;0.90;;;19.40;99.90;;;19.17;68.03;101684.34;4977087;28;19905;-72
2022/07/06 07:47:34;;;;;;;5.70;0.85;;;19.70;99.90;;;19.74;66.22;101677.78;4974248;28;20521;-71
2022/07/06 07:50:00;;;;;;;7.70;0.75;;;20.10;99.90;;;20.41;65.07;101688.16;4965046;28;20089;-71
2022/07/06 07:52:26;;;;;;;3.92;0.90;;;20.50;99.90;;;20.51;63.13;101691.88;4981438;28;20441;-72
2022/07/06 07:54:52;;;;;;;5.72;1.00;;;20.80;99.90;;;20.66;62.87;101696.09;4986499;28;20557;-71
2022/07/06 07:57:17;;;;;;;4.00;0.73;;;20.90;99.90;;;20.62;62.77;101694.63;4983679;28;20029;-71
2022/07/06 07:59:43;;;;;;;6.93;0.80;;;21.00;99.90;;;20.84;62.94;101691.25;4972930;28;20450;-72
2022/07/06 08:02:09;;;;;;;;;;;21.10;99.90;;;20.76;62.50;101700.81;4963786;28;20035;-73
2022/07/06 08:04:35;;;;;;;6.28;1.02;;;21.10;99.90;;;20.72;62.23;101702.00;4983542;28;19913;-71
2022/07/06 08:07:00;;;;;;;;;;;21.10;99.90;;;21.59;60.54;101713.28;4966889;28;20052;-72
2022/07/06 08:09:26;;;;;;;4.10;0.93;;;21.80;99.90;;;22.12;59.21;101708.19;4984837;28;19975;-71
2022/07/06 08:11:52;;;;;;;5.97;0.88;;;22.30;99.90;;;22.35;58.61;101713.56;4982852;28;20495;-71
2022/07/06 08:14:18;;;;;;;5.88;1.02;;;22.40;99.90;;;22.13;58.15;101712.56;4980338;28;20058;-72
2022/07/06 08:16:43;;;;;;;9.82;0.80;;;22.40;99.90;;;22.00;58.98;101706.50;4973914;28;20033;-73
2022/07/06 08:19:13;;;;;;;4.60;1.05;;;22.20;99.90;;;21.59;58.97;101711.44;4974775;28;20088;-71
2022/07/06 08:21:39;;;;;;;10.15;1.30;;;22.10;99.90;;;21.65;58.38;101715.47;4981675;28;20084;-72
2022/07/06 08:24:06;;;;;;;6.82;0.90;;;22.00;99.90;;;21.51;58.40;101708.50;5000926;28;20022;-71
2022/07/06 08:26:32;;;;;;;5.88;1.00;;;22.00;99.90;;;21.54;57.77;101713.63;4989017;28;20125;-72
2022/07/06 08:28:58;;;;;;;5.78;0.60;;;21.70;99.80;;;20.95;57.46;101706.50;4980779;28;20056;-72
2022/07/06 08:31:26;;;;;;;4.70;0.75;;;21.40;99.90;;;20.36;59.09;101704.53;4984607;28;20056;-71
2022/07/06 08:33:53;;;;;;;8.27;1.00;;;21.00;99.90;;;19.95;60.22;101702.16;4999420;28;20037;-72
2022/07/06 08:36:20;;;;;;;3.80;0.98;;;20.90;99.90;;;20.26;60.76;101708.84;4989406;28;20109;-74
2022/07/06 08:38:47;;;;;;;2.05;0.60;;;21.00;99.90;;;20.54;58.81;101710.38;4990042;28;20049;-74
2022/07/06 08:41:15;;;;;;;5.60;0.60;;;20.90;99.90;;;20.05;58.89;101705.91;4974008;28;20041;-74
2022/07/06 08:43:41;;;;;;;6.80;0.98;;;20.80;99.90;;;20.17;58.84;101718.41;4982950;28;20162;-74
2022/07/06 08:46:08;;;;;;;6.50;0.90;;;20.80;99.90;;;20.33;58.47;101726.16;4980824;28;20027;-74
2022/07/06 08:48:37;;;;;;;6.63;1.00;;;20.90;99.90;;;20.32;58.10;101724.44;4972767;28;20061;-75
2022/07/06 08:51:04;;;;;;;5.55;0.80;;;20.60;99.70;;;19.53;58.70;101721.06;4979069;28;20026;-74
2022/07/06 08:53:30;;;;;;;5.25;0.90;;;20.20;99.90;;;19.02;60.17;101726.28;4974928;28;20026;-73
2022/07/06 08:55:56;;;;;;;6.93;0.80;;;20.00;99.90;;;19.01;60.96;101729.91;4980265;28;20026;-74
2022/07/06 08:58:26;;;;;;;;;;;19.90;99.90;;;18.99;60.68;101724.66;4984562;28;20023;-74
2022/07/06 09:00:54;;;;;;;3.90;0.63;;;19.70;99.90;;;18.70;60.99;101726.53;4965297;28;19914;-74
2022/07/06 09:03:20;;;;;;;3.45;0.57;;;19.30;99.90;;;18.02;62.48;101720.19;4980064;28;20046;-74
2022/07/06 09:05:47;;;;;;;5.18;0.90;;;19.00;99.90;;;17.77;63.50;101715.47;4998453;28;20172;-74
2022/07/06 09:08:17;;;;;;;9.27;1.10;;;19.00;99.90;;;18.06;64.40;101723.50;4984706;28;20035;-74
2022/07/06 09:10:43;;;;;;;6.15;1.08;;;19.00;99.90;;;18.32;63.73;101721.88;4982401;28;20111;-74
2022/07/06 09:13:10;;;;;;;5.80;1.10;;;19.00;99.90;;;18.40;63.98;101726.69;4979331;28;20110;-74
2022/07/06 09:15:43;;;;;;;9.30;1.13;;;19.10;99.90;;;18.61;64.21;101736.00;4984012;28;20111;-73
2022/07/06 09:18:09;;;;;;;6.50;0.80;;;19.30;99.90;;;18.77;63.53;101738.53;4986698;28;20022;-73
2022/07/06 09:20:36;;;;;;;5.85;0.98;;;19.30;99.90;;;18.78;62.72;101736.75;4966857;28;20125;-74
2022/07/06 09:23:05;;;;;;;3.63;0.65;;;19.40;99.90;;;18.83;61.66;101731.97;4981498;28;20033;-74
2022/07/06 09:25:35;;;;;;;3.63;0.80;;;19.50;99.90;;;18.93;62.86;101743.75;4982362;28;20042;-73
2022/07/06 09:28:05;;;;;;;4.10;0.93;;;19.60;99.90;;;18.98;62.72;101746.13;4982333;28;20509;-74
2022/07/06 09:30:31;;;;;;;4.00;0.65;;;19.60;99.90;;;18.84;62.56;101744.38;4982896;28;20044;-74
2022/07/06 09:32:58;;;;;;;8.10;0.90;;;19.70;99.90;;;19.32;62.52;101755.41;4973504;28;20105;-75
2022/07/06 09:35:37;;;;;;;4.70;0.60;;;19.90;99.90;;;19.66;60.95;101747.78;4980010;28;20117;-73
2022/07/06 09:38:11;;;;;;;5.63;0.82;;;20.10;99.90;;;19.84;61.11;101754.53;4981041;28;20034;-74
2022/07/06 09:40:40;;;;;;;4.15;0.70;;;20.20;99.90;;;19.74;61.13;101761.50;4980096;28;20026;-74
2022/07/06 09:43:21;;;;;;;4.85;0.85;;;20.30;99.90;;;19.77;60.67;101758.59;4980885;28;20454;-73
2022/07/06 09:45:58;;;;;;;5.90;0.70;;;20.40;99.90;;;19.96;60.82;101754.66;4970005;28;20474;-74
2022/07/06 09:48:27;;;;;;;5.97;0.70;;;20.50;99.90;;;20.06;60.89;101758.38;4963540;28;20029;-75
2022/07/06 09:51:06;;;;;;;5.05;0.90;;;20.60;99.90;;;20.18;60.16;101759.34;4965928;28;20057;-74
2022/07/06 09:53:38;;;;;;;4.43;0.60;;;20.70;99.90;;;20.23;59.24;101758.03;4983965;28;20409;-74
2022/07/06 09:56:13;;;;;;;4.30;0.50;;;20.70;99.90;;;20.27;58.69;101750.66;4981801;28;20042;-74
2022/07/06 09:58:41;;;;;;;3.75;0.70;;;21.00;99.90;;;20.76;57.99;101757.00;4995948;28;20033;-74
2022/07/06 10:01:09;;;;;;;2.78;0.50;;;21.20;99.90;;;20.93;57.09;101753.94;4972808;28;20119;-74
2022/07/06 10:03:35;;;;;;;3.50;0.52;;;21.30;99.90;;;20.89;57.20;101757.81;4980573;28;20541;-74
2022/07/06 10:06:01;;;;;;;1.70;0.50;;;21.40;98.70;;;20.79;55.33;101754.09;4982636;28;20092;-74
2022/07/06 10:08:32;;;;;;;6.15;0.68;;;21.20;98.50;;;20.42;55.91;101754.06;4971588;28;20029;-74
2022/07/06 10:10:58;;;;;;;1.73;0.40;;;21.10;98.50;;;20.21;55.72;101746.59;4982746;28;20094;-74
2022/07/06 10:13:26;;;;;;;3.05;0.60;;;20.90;99.10;;;20.04;57.20;101747.81;4981697;28;20092;-74
2022/07/06 10:15:52;;;;;;;8.57;0.82;;;20.90;99.60;;;20.40;56.97;101748.81;4982714;28;20046;-74
2022/07/06 10:18:22;;;;;;;2.40;0.75;;;21.10;98.20;;;20.76;54.74;101757.84;4981915;28;20033;-74
2022/07/06 10:20:48;;;;;;;1.83;0.50;;;21.20;97.40;;;20.83;53.49;101744.88;4981148;28;20037;-74
2022/07/06 10:23:23;;;;;;;2.38;0.47;;;21.40;96.50;;;21.07;52.21;101751.06;4978188;28;20041;-75